Forney's Hourly Summary for Sunday, July 8, 2018
Hour Temp
(f)
RH
(%)
Solar Rad.
(MJ/m2)
Rainfall
(in)
Wind
(mph)
7/8/2018 12:00 AM 81 64 0 0 1.18
7/8/2018 1:00 AM 80 68 0 0 0.82
7/8/2018 2:00 AM 79 69 0 0 0.59
7/8/2018 3:00 AM 77 74 0 0 0.05
7/8/2018 4:00 AM 76 78 0 0 0
7/8/2018 5:00 AM 75 80 0 0 0.01
7/8/2018 6:00 AM 74 82 0 0 0.19
7/8/2018 7:00 AM 74 82 0.05 0 0.01
7/8/2018 8:00 AM 76 79 0.32 0 1.91
7/8/2018 9:00 AM 78 72 0.97 0 2.22
7/8/2018 10:00 AM 82 62 1.57 0 2.73
7/8/2018 11:00 AM 84 57 1.7 0 2.9
7/8/2018 12:00 PM 87 52 2.3 0 3.7
7/8/2018 1:00 PM 89 45 2.79 0 4.5
7/8/2018 2:00 PM 90 43 2.24 0 4.96
7/8/2018 3:00 PM 92 39 2.49 0 5.64
7/8/2018 4:00 PM 92 38 1.85 0 5.97
7/8/2018 5:00 PM 87 51 1.69 0 4.43
7/8/2018 6:00 PM 89 50 1.66 0 4.05
7/8/2018 7:00 PM 88 50 1 0 5.23
7/8/2018 8:00 PM 87 55 0.42 0 3.19
7/8/2018 9:00 PM 85 56 0.05 0 2.06
7/8/2018 10:00 PM 82 62 0 0 1.24
7/8/2018 11:00 PM 80 67 0 0 1.1
Data Summary 82 61 21.10 0.00 2.45